Time;durP1;ratioP1;P1;durP2;ratioP2;P2;SDS_P1;SDS_P2;PMS_P1;PMS_P2;Temp;Humidity;BMP_temperature;BMP_pressure;BME280_temperature;BME280_humidity;BME280_pressure;Samples;Min_cycle;Max_cycle;Signal;HPM_P1;HPM_P2
2021/05/27 00:02:08;;;;;;;6.78;3.33;;;;;;;;;;4994148;28;20030;-83
2021/05/27 00:04:35;;;;;;;6.82;3.40;;;;;;;;;;4994078;28;20030;-83
2021/05/27 00:07:00;;;;;;;5.53;3.35;;;;;;;;;;4978021;28;20038;-83
2021/05/27 00:09:27;;;;;;;7.65;2.97;;;;;;;;;;4977755;28;20030;-83
2021/05/27 00:11:53;;;;;;;5.03;3.10;;;;;;;;;;4977151;28;20041;-83
2021/05/27 00:14:20;;;;;;;6.10;2.97;;;;;;;;;;4977553;28;20030;-83
2021/05/27 00:16:45;;;;;;;4.80;2.95;;;;;;;;;;4977459;28;20053;-82
2021/05/27 00:19:12;;;;;;;4.82;2.92;;;;;;;;;;4972847;28;20039;-83
2021/05/27 00:21:38;;;;;;;5.50;2.75;;;;;;;;;;4958188;28;20125;-83
2021/05/27 00:24:04;;;;;;;5.22;2.78;;;;;;;;;;4974116;28;20118;-83
2021/05/27 00:26:29;;;;;;;4.55;2.67;;;;;;;;;;4990161;28;20501;-83
2021/05/27 00:28:55;;;;;;;6.70;3.33;;;;;;;;;;4973836;28;20027;-83
2021/05/27 00:31:20;;;;;;;4.50;2.85;;;;;;;;;;4974271;28;20027;-83
2021/05/27 00:33:47;;;;;;;6.28;3.05;;;;;;;;;;5009169;28;20022;-83
2021/05/27 00:36:12;;;;;;;4.72;2.35;;;;;;;;;;4996812;28;20041;-83
2021/05/27 00:38:38;;;;;;;5.03;3.17;;;;;;;;;;4996723;28;20056;-83
2021/05/27 00:41:04;;;;;;;5.38;2.72;;;;;;;;;;5012833;28;20042;-84
2021/05/27 00:43:30;;;;;;;5.93;2.70;;;;;;;;;;5012719;28;20041;-83
2021/05/27 00:45:56;;;;;;;5.22;2.67;;;;;;;;;;5013051;28;20057;-84
2021/05/27 00:51:07;;;;;;;4.63;2.35;;;;;;;;;;5014967;28;20034;-83
2021/05/27 00:53:33;;;;;;;6.20;2.65;;;;;;;;;;4996458;28;20088;-84
2021/05/27 00:55:59;;;;;;;4.82;2.33;;;;;;;;;;4995992;28;20045;-83
2021/05/27 00:58:25;;;;;;;3.75;2.38;;;;;;;;;;4996237;28;20030;-83
2021/05/27 01:00:52;;;;;;;3.65;1.83;;;;;;;;;;4996468;28;20026;-83
2021/05/27 01:03:17;;;;;;;5.25;2.10;;;;;;;;;;4996102;28;20071;-83
2021/05/27 01:05:43;;;;;;;5.03;2.25;;;;;;;;;;4979803;28;20435;-83
2021/05/27 01:08:09;;;;;;;3.38;1.90;;;;;;;;;;4996321;28;20018;-83
2021/05/27 01:10:36;;;;;;;4.38;2.40;;;;;;;;;;4995536;28;20045;-84
2021/05/27 01:13:02;;;;;;;4.93;2.10;;;;;;;;;;4992541;28;20034;-83
2021/05/27 01:15:31;;;;;;;3.83;2.15;;;;;;;;;;4989244;28;20444;-83
2021/05/27 01:18:17;;;;;;;4.78;2.10;;;;;;;;;;4988157;28;20069;-83
2021/05/27 01:20:50;;;;;;;8.30;2.50;;;;;;;;;;4985979;28;20452;-83
2021/05/27 01:23:16;;;;;;;3.65;2.05;;;;;;;;;;5004707;28;20452;-83
2021/05/27 01:25:48;;;;;;;4.45;2.00;;;;;;;;;;5015078;28;20018;-83
2021/05/27 01:28:15;;;;;;;5.05;2.08;;;;;;;;;;4992050;28;20030;-83
2021/05/27 01:30:40;;;;;;;4.88;2.03;;;;;;;;;;5008424;28;20138;-83
2021/05/27 01:33:09;;;;;;;4.15;1.80;;;;;;;;;;5002690;28;20101;-83
2021/05/27 01:35:35;;;;;;;3.92;1.98;;;;;;;;;;4995755;28;20041;-83
2021/05/27 01:38:12;;;;;;;3.47;1.83;;;;;;;;;;4995259;28;20030;-84
2021/05/27 01:40:37;;;;;;;4.18;2.00;;;;;;;;;;4996535;28;20129;-83
2021/05/27 01:43:03;;;;;;;3.15;1.65;;;;;;;;;;4995175;28;20041;-83
2021/05/27 01:45:29;;;;;;;5.30;2.38;;;;;;;;;;4995062;28;20025;-83
2021/05/27 01:47:55;;;;;;;3.17;1.80;;;;;;;;;;5011853;28;20167;-83
2021/05/27 01:50:20;;;;;;;3.95;2.03;;;;;;;;;;5011408;28;20045;-83
2021/05/27 01:52:48;;;;;;;3.80;1.83;;;;;;;;;;4995441;28;20054;-84
2021/05/27 01:55:13;;;;;;;3.63;1.92;;;;;;;;;;4994844;28;20026;-83
2021/05/27 01:57:39;;;;;;;3.75;1.85;;;;;;;;;;4995226;28;20129;-83
2021/05/27 02:00:05;;;;;;;4.28;1.58;;;;;;;;;;4995086;28;20103;-84
2021/05/27 02:02:32;;;;;;;4.38;1.60;;;;;;;;;;4995295;28;20086;-83
2021/05/27 02:04:58;;;;;;;3.45;1.58;;;;;;;;;;4995308;28;20033;-83
2021/05/27 02:07:24;;;;;;;4.25;1.80;;;;;;;;;;4973342;28;20029;-83
2021/05/27 02:09:50;;;;;;;4.03;2.05;;;;;;;;;;4987948;28;20419;-83
2021/05/27 02:12:16;;;;;;;3.15;1.73;;;;;;;;;;4988219;28;20038;-83
2021/05/27 02:14:41;;;;;;;3.83;1.55;;;;;;;;;;4972043;28;20396;-83
2021/05/27 02:17:07;;;;;;;3.20;1.90;;;;;;;;;;4972039;28;20053;-83
2021/05/27 02:19:34;;;;;;;5.07;1.63;;;;;;;;;;4971880;28;20117;-83
2021/05/27 02:21:59;;;;;;;3.75;1.33;;;;;;;;;;4971989;28;20046;-83
2021/05/27 02:24:25;;;;;;;3.72;1.70;;;;;;;;;;4988180;28;20050;-83
2021/05/27 02:26:51;;;;;;;2.20;1.20;;;;;;;;;;5010649;28;20018;-83
2021/05/27 02:29:16;;;;;;;3.80;1.60;;;;;;;;;;5010825;28;20038;-83
2021/05/27 02:31:42;;;;;;;3.58;1.52;;;;;;;;;;4994711;28;20124;-83
2021/05/27 02:34:08;;;;;;;3.95;1.40;;;;;;;;;;4992685;28;20043;-84
2021/05/27 02:36:35;;;;;;;3.03;1.20;;;;;;;;;;4974820;28;20026;-84
2021/05/27 02:39:02;;;;;;;3.85;1.60;;;;;;;;;;4974766;28;20037;-83
2021/05/27 02:41:29;;;;;;;2.92;1.63;;;;;;;;;;4974292;28;20030;-83
2021/05/27 02:43:55;;;;;;;4.05;1.20;;;;;;;;;;4975094;28;20033;-83
2021/05/27 02:46:22;;;;;;;3.55;1.25;;;;;;;;;;4975266;28;20038;-83
2021/05/27 02:48:47;;;;;;;3.47;1.35;;;;;;;;;;4975265;28;20030;-83
2021/05/27 02:51:13;;;;;;;1.90;1.00;;;;;;;;;;4974460;28;20035;-83
2021/05/27 02:53:38;;;;;;;2.97;1.27;;;;;;;;;;4991126;28;20038;-84
2021/05/27 02:56:04;;;;;;;2.63;1.25;;;;;;;;;;4990845;28;20093;-83
2021/05/27 02:58:29;;;;;;;2.75;1.25;;;;;;;;;;4974636;28;20116;-83
2021/05/27 03:00:56;;;;;;;2.97;1.40;;;;;;;;;;4971321;28;20090;-83
2021/05/27 03:03:22;;;;;;;2.15;1.05;;;;;;;;;;4987745;28;20094;-83
2021/05/27 03:05:48;;;;;;;2.90;1.38;;;;;;;;;;4987419;28;20034;-84
2021/05/27 03:08:14;;;;;;;2.25;1.17;;;;;;;;;;4971671;28;20462;-83
2021/05/27 03:10:41;;;;;;;2.53;1.40;;;;;;;;;;4988026;28;20038;-83
2021/05/27 03:13:07;;;;;;;3.25;1.17;;;;;;;;;;4987539;28;20133;-83
2021/05/27 03:15:33;;;;;;;2.33;1.08;;;;;;;;;;4987522;28;20046;-83
2021/05/27 03:18:08;;;;;;;3.80;1.20;;;;;;;;;;4971315;28;20034;-83
2021/05/27 03:20:34;;;;;;;2.50;1.20;;;;;;;;;;4987456;28;20085;-83
2021/05/27 03:23:00;;;;;;;3.33;1.33;;;;;;;;;;4971360;28;20477;-83
2021/05/27 03:25:25;;;;;;;2.63;0.95;;;;;;;;;;4981888;28;20101;-83
2021/05/27 03:27:51;;;;;;;3.50;1.45;;;;;;;;;;4994087;28;20149;-83
2021/05/27 03:30:17;;;;;;;3.88;1.52;;;;;;;;;;4994281;28;20026;-83
2021/05/27 03:32:43;;;;;;;3.10;1.30;;;;;;;;;;5010832;28;20056;-83
2021/05/27 03:35:09;;;;;;;2.90;1.15;;;;;;;;;;4993742;28;20491;-83
2021/05/27 03:37:35;;;;;;;4.32;1.38;;;;;;;;;;5010094;28;20046;-83
2021/05/27 03:40:14;;;;;;;3.22;1.13;;;;;;;;;;4993666;28;20030;-83
2021/05/27 03:42:44;;;;;;;3.03;1.92;;;;;;;;;;4995409;28;20068;-83
2021/05/27 03:45:14;;;;;;;2.53;1.13;;;;;;;;;;4978155;28;20124;-83
2021/05/27 03:47:39;;;;;;;2.38;1.00;;;;;;;;;;4994431;28;20127;-83
2021/05/27 03:50:07;;;;;;;3.47;1.50;;;;;;;;;;4993423;28;20480;-83
2021/05/27 03:52:32;;;;;;;3.45;1.75;;;;;;;;;;5010156;28;20033;-83
2021/05/27 03:54:58;;;;;;;3.08;1.02;;;;;;;;;;5000683;28;20084;-83
2021/05/27 03:57:23;;;;;;;2.65;1.00;;;;;;;;;;4993671;28;20026;-83
2021/05/27 04:02:33;;;;;;;2.95;1.38;;;;;;;;;;4993442;28;20037;-83
2021/05/27 04:07:42;;;;;;;3.08;1.00;;;;;;;;;;4993890;28;20034;-83
2021/05/27 04:10:09;;;;;;;4.68;1.40;;;;;;;;;;4977720;28;20109;-83
2021/05/27 04:12:45;;;;;;;2.60;1.00;;;;;;;;;;4977317;28;20053;-83
2021/05/27 04:15:27;;;;;;;2.35;1.20;;;;;;;;;;4993360;28;20026;-83
2021/05/27 04:18:00;;;;;;;2.85;1.08;;;;;;;;;;4975697;28;20030;-83
2021/05/27 04:20:30;;;;;;;2.80;1.38;;;;;;;;;;4992528;28;20031;-82
2021/05/27 04:22:55;;;;;;;3.47;0.98;;;;;;;;;;4993563;28;20496;-83
2021/05/27 04:25:23;;;;;;;2.17;1.10;;;;;;;;;;4983885;28;20014;-83
2021/05/27 04:27:48;;;;;;;2.17;1.40;;;;;;;;;;4996781;28;20021;-83
2021/05/27 04:30:15;;;;;;;3.50;1.00;;;;;;;;;;4996852;28;20161;-83
2021/05/27 04:33:01;;;;;;;3.08;1.35;;;;;;;;;;4989992;28;20023;-83
2021/05/27 04:35:36;;;;;;;2.70;1.23;;;;;;;;;;5009689;28;20387;-83
2021/05/27 04:38:15;;;;;;;2.95;1.33;;;;;;;;;;4977267;28;20030;-83
2021/05/27 04:40:49;;;;;;;3.80;1.20;;;;;;;;;;4977181;28;20173;-83
2021/05/27 04:43:17;;;;;;;2.22;0.93;;;;;;;;;;4976857;28;20127;-83
2021/05/27 04:45:43;;;;;;;3.08;1.25;;;;;;;;;;4976919;28;20077;-83
2021/05/27 04:48:10;;;;;;;3.80;1.20;;;;;;;;;;4993173;28;20034;-83
2021/05/27 04:50:42;;;;;;;2.47;1.13;;;;;;;;;;4989528;28;20050;-83
2021/05/27 04:53:07;;;;;;;3.63;1.02;;;;;;;;;;4988956;28;20031;-83
2021/05/27 04:55:33;;;;;;;3.35;1.20;;;;;;;;;;4989484;28;20041;-83
2021/05/27 04:58:00;;;;;;;3.20;1.13;;;;;;;;;;4989511;28;20034;-83
2021/05/27 05:00:26;;;;;;;2.92;1.20;;;;;;;;;;5006112;28;20045;-83
2021/05/27 05:02:52;;;;;;;3.20;1.10;;;;;;;;;;5005821;28;20038;-83
2021/05/27 05:05:18;;;;;;;2.97;1.42;;;;;;;;;;4989044;28;20026;-83
2021/05/27 05:07:43;;;;;;;2.45;0.90;;;;;;;;;;4989422;28;20022;-83
2021/05/27 05:10:13;;;;;;;2.60;0.88;;;;;;;;;;5005722;28;20061;-82
2021/05/27 05:12:49;;;;;;;2.67;0.93;;;;;;;;;;4989013;28;20050;-83
2021/05/27 05:15:23;;;;;;;3.20;1.23;;;;;;;;;;4988065;28;20081;-83
2021/05/27 05:17:53;;;;;;;4.22;1.05;;;;;;;;;;4987796;28;20077;-82
2021/05/27 05:20:21;;;;;;;2.30;1.25;;;;;;;;;;5004517;28;20493;-83
2021/05/27 05:22:46;;;;;;;2.20;1.10;;;;;;;;;;5005499;28;20061;-83
2021/05/27 05:25:13;;;;;;;2.22;1.15;;;;;;;;;;4988724;28;20445;-83
2021/05/27 05:27:40;;;;;;;4.13;1.15;;;;;;;;;;5005504;28;20058;-83
2021/05/27 05:30:06;;;;;;;3.15;1.10;;;;;;;;;;4988717;28;20038;-83
2021/05/27 05:32:32;;;;;;;3.17;0.93;;;;;;;;;;4994068;28;20046;-83
2021/05/27 05:34:59;;;;;;;4.07;1.33;;;;;;;;;;4992119;28;20034;-84
2021/05/27 05:37:24;;;;;;;2.13;0.80;;;;;;;;;;4975783;28;20058;-83
2021/05/27 05:39:53;;;;;;;2.75;1.48;;;;;;;;;;4991957;28;20042;-83
2021/05/27 05:42:21;;;;;;;2.72;1.13;;;;;;;;;;4975460;28;20504;-85
2021/05/27 05:44:47;;;;;;;2.70;1.33;;;;;;;;;;4972300;28;20146;-83
2021/05/27 05:47:14;;;;;;;2.42;0.90;;;;;;;;;;4988274;28;20043;-83
2021/05/27 05:49:39;;;;;;;3.10;1.00;;;;;;;;;;4956110;28;20122;-83
2021/05/27 05:52:05;;;;;;;3.55;1.05;;;;;;;;;;4956302;28;20038;-82
2021/05/27 05:54:31;;;;;;;1.92;0.90;;;;;;;;;;4972119;28;20031;-78
2021/05/27 05:56:56;;;;;;;2.95;1.00;;;;;;;;;;4972455;28;20035;-78
2021/05/27 05:59:22;;;;;;;2.28;0.93;;;;;;;;;;4971785;28;20039;-78
2021/05/27 06:01:49;;;;;;;4.07;1.60;;;;;;;;;;5002728;28;20109;-78
2021/05/27 06:04:14;;;;;;;2.70;0.98;;;;;;;;;;4991593;28;20121;-79
2021/05/27 06:06:40;;;;;;;6.70;2.53;;;;;;;;;;4990957;28;20053;-78
2021/05/27 06:09:05;;;;;;;7.93;4.00;;;;;;;;;;5006245;28;20108;-81
2021/05/27 06:11:30;;;;;;;4.72;3.20;;;;;;;;;;5007313;28;20097;-81
2021/05/27 06:13:56;;;;;;;6.32;3.15;;;;;;;;;;5002232;28;20045;-81
2021/05/27 06:16:22;;;;;;;6.07;2.80;;;;;;;;;;4990150;28;20137;-80
2021/05/27 06:18:47;;;;;;;6.25;3.20;;;;;;;;;;5024066;28;20080;-81
2021/05/27 06:21:13;;;;;;;5.97;2.83;;;;;;;;;;5022377;28;20052;-80
2021/05/27 06:23:38;;;;;;;8.00;3.90;;;;;;;;;;4991236;28;20026;-80
2021/05/27 06:26:04;;;;;;;7.32;2.75;;;;;;;;;;5010478;28;20037;-80
2021/05/27 06:28:29;;;;;;;10.63;3.47;;;;;;;;;;4993865;28;20038;-81
2021/05/27 06:30:56;;;;;;;7.72;3.90;;;;;;;;;;4991896;28;20381;-81
2021/05/27 06:33:22;;;;;;;5.90;2.72;;;;;;;;;;4996701;28;20588;-81
2021/05/27 06:35:47;;;;;;;7.80;3.10;;;;;;;;;;4974342;28;20092;-80
2021/05/27 06:38:14;;;;;;;7.22;3.08;;;;;;;;;;4990065;28;20038;-82
2021/05/27 06:40:39;;;;;;;5.38;2.80;;;;;;;;;;4990649;28;20484;-82
2021/05/27 06:43:05;;;;;;;5.70;3.03;;;;;;;;;;4974493;28;20066;-82
2021/05/27 06:45:30;;;;;;;6.50;2.90;;;;;;;;;;4974508;28;20030;-81
2021/05/27 06:47:56;;;;;;;8.38;3.67;;;;;;;;;;4975053;28;20097;-82
2021/05/27 06:50:35;;;;;;;5.22;2.38;;;;;;;;;;5007015;28;20038;-83
2021/05/27 06:53:04;;;;;;;7.22;3.00;;;;;;;;;;4976633;28;20067;-82
2021/05/27 06:55:30;;;;;;;6.15;2.45;;;;;;;;;;4993829;28;20061;-83
2021/05/27 06:57:55;;;;;;;9.25;3.03;;;;;;;;;;4972276;28;20062;-81
2021/05/27 07:00:21;;;;;;;6.45;2.53;;;;;;;;;;4982040;28;20090;-82
2021/05/27 07:02:48;;;;;;;6.82;2.92;;;;;;;;;;4987855;28;20062;-81
2021/05/27 07:05:13;;;;;;;8.68;3.05;;;;;;;;;;4971522;28;20548;-81
2021/05/27 07:07:39;;;;;;;6.05;3.15;;;;;;;;;;5005859;28;20041;-81
2021/05/27 07:10:05;;;;;;;7.05;3.35;;;;;;;;;;4965867;28;20049;-80
2021/05/27 07:12:32;;;;;;;7.47;3.10;;;;;;;;;;4951990;28;20449;-81
2021/05/27 07:14:58;;;;;;;6.15;3.28;;;;;;;;;;4971345;28;20370;-80
2021/05/27 07:17:23;;;;;;;7.07;4.20;;;;;;;;;;4971338;28;20038;-80
2021/05/27 07:19:49;;;;;;;5.35;2.65;;;;;;;;;;4971123;28;20439;-81
2021/05/27 07:22:15;;;;;;;8.25;2.70;;;;;;;;;;4987936;28;20052;-82
2021/05/27 07:24:41;;;;;;;5.95;2.90;;;;;;;;;;4990441;28;20046;-82
2021/05/27 07:27:06;;;;;;;8.90;4.80;;;;;;;;;;4995721;28;20035;-82
2021/05/27 07:29:32;;;;;;;9.27;6.00;;;;;;;;;;5009944;28;20384;-83
2021/05/27 07:31:58;;;;;;;15.77;10.32;;;;;;;;;;4976502;28;20034;-78
2021/05/27 07:34:23;;;;;;;16.73;10.25;;;;;;;;;;4997433;28;20029;-77
2021/05/27 07:36:49;;;;;;;11.82;7.63;;;;;;;;;;5013837;28;20125;-76
2021/05/27 07:39:14;;;;;;;8.90;5.63;;;;;;;;;;5013635;28;20213;-81
2021/05/27 07:41:40;;;;;;;10.52;5.53;;;;;;;;;;5013664;28;20373;-78
2021/05/27 07:44:05;;;;;;;8.45;5.40;;;;;;;;;;5009961;28;20431;-78
2021/05/27 07:46:30;;;;;;;11.90;5.88;;;;;;;;;;5010842;28;20113;-79
2021/05/27 07:48:56;;;;;;;9.32;5.70;;;;;;;;;;4991644;28;20079;-78
2021/05/27 07:51:21;;;;;;;10.90;5.68;;;;;;;;;;4991448;28;20437;-78
2021/05/27 07:53:48;;;;;;;9.68;5.88;;;;;;;;;;4991921;28;20018;-78
2021/05/27 07:56:14;;;;;;;11.55;6.65;;;;;;;;;;4993282;28;20030;-79
2021/05/27 07:58:39;;;;;;;8.50;6.05;;;;;;;;;;5009993;28;20105;-80
2021/05/27 08:01:05;;;;;;;13.95;6.75;;;;;;;;;;4993799;28;20042;-79
2021/05/27 08:03:31;;;;;;;14.77;6.90;;;;;;;;;;4960813;28;20027;-80
2021/05/27 08:05:56;;;;;;;10.85;6.50;;;;;;;;;;5009854;28;20385;-82
2021/05/27 08:08:22;;;;;;;9.82;6.30;;;;;;;;;;5009656;28;20028;-82
2021/05/27 08:10:47;;;;;;;11.63;6.97;;;;;;;;;;5009771;28;20038;-81
2021/05/27 08:13:14;;;;;;;13.00;6.65;;;;;;;;;;5026372;28;20045;-81
2021/05/27 08:15:39;;;;;;;23.80;8.32;;;;;;;;;;5026408;28;20045;-79
2021/05/27 08:18:05;;;;;;;21.13;7.97;;;;;;;;;;5009159;28;20508;-80
2021/05/27 08:20:30;;;;;;;11.80;6.15;;;;;;;;;;4988735;28;20066;-78
2021/05/27 08:22:56;;;;;;;12.23;7.65;;;;;;;;;;5012750;28;20391;-79
2021/05/27 08:25:21;;;;;;;9.65;5.70;;;;;;;;;;5001054;28;20100;-79
2021/05/27 08:27:47;;;;;;;10.38;5.95;;;;;;;;;;4996741;28;20423;-80
2021/05/27 08:30:13;;;;;;;13.23;8.23;;;;;;;;;;4996410;28;20034;-80
2021/05/27 08:32:38;;;;;;;13.10;8.75;;;;;;;;;;4989791;28;20396;-80
2021/05/27 08:35:05;;;;;;;20.65;12.65;;;;;;;;;;4977073;28;20041;-79
2021/05/27 08:37:30;;;;;;;26.48;13.40;;;;;;;;;;4996066;28;20172;-79
2021/05/27 08:39:56;;;;;;;18.25;9.73;;;;;;;;;;4978707;28;20037;-79
2021/05/27 08:42:21;;;;;;;22.83;8.18;;;;;;;;;;5008339;28;20037;-79
2021/05/27 08:44:48;;;;;;;17.60;8.05;;;;;;;;;;4977935;28;20039;-79
2021/05/27 08:47:15;;;;;;;17.85;7.70;;;;;;;;;;4977588;28;20042;-80
2021/05/27 08:49:43;;;;;;;14.75;8.18;;;;;;;;;;4960469;28;20117;-81
2021/05/27 08:52:08;;;;;;;15.98;8.75;;;;;;;;;;4961203;28;20026;-80
2021/05/27 08:54:34;;;;;;;9.30;7.20;;;;;;;;;;4959912;28;20112;-78
2021/05/27 08:57:05;;;;;;;12.38;6.57;;;;;;;;;;4987918;28;20401;-80
2021/05/27 08:59:32;;;;;;;11.98;6.90;;;;;;;;;;4991657;28;20042;-80
2021/05/27 09:02:10;;;;;;;11.88;6.82;;;;;;;;;;4976341;28;20145;-80
2021/05/27 09:04:38;;;;;;;9.80;6.75;;;;;;;;;;5008779;28;20043;-80
2021/05/27 09:07:03;;;;;;;12.77;7.30;;;;;;;;;;5008450;28;20033;-80
2021/05/27 09:09:56;;;;;;;11.10;6.22;;;;;;;;;;4992222;28;20026;-80
2021/05/27 09:12:32;;;;;;;9.13;6.55;;;;;;;;;;5008584;28;20026;-80
2021/05/27 09:14:58;;;;;;;9.95;5.97;;;;;;;;;;4992162;28;20030;-80
2021/05/27 09:17:23;;;;;;;7.75;5.53;;;;;;;;;;4992221;28;20045;-80
2021/05/27 09:20:11;;;;;;;9.27;6.75;;;;;;;;;;5008084;28;20022;-80
2021/05/27 09:22:37;;;;;;;10.40;5.30;;;;;;;;;;4959800;28;20085;-81
2021/05/27 09:25:03;;;;;;;7.97;5.57;;;;;;;;;;4975733;28;20105;-80
2021/05/27 09:27:47;;;;;;;7.05;4.88;;;;;;;;;;4975915;28;20084;-81
2021/05/27 09:30:13;;;;;;;8.40;5.68;;;;;;;;;;5008481;28;20503;-81
2021/05/27 09:32:39;;;;;;;6.78;5.43;;;;;;;;;;4982250;28;20057;-81
2021/05/27 09:35:11;;;;;;;9.75;6.07;;;;;;;;;;4995145;28;20079;-81
2021/05/27 09:37:37;;;;;;;8.30;5.28;;;;;;;;;;5011147;28;20037;-81
2021/05/27 09:40:05;;;;;;;9.15;5.30;;;;;;;;;;4990429;28;20033;-81
2021/05/27 09:42:50;;;;;;;7.55;4.97;;;;;;;;;;4996069;28;20113;-81
2021/05/27 09:45:18;;;;;;;9.10;5.57;;;;;;;;;;5005442;28;20104;-82
2021/05/27 09:47:44;;;;;;;6.53;5.15;;;;;;;;;;4991812;28;20034;-81
2021/05/27 09:50:11;;;;;;;9.30;5.95;;;;;;;;;;5007318;28;20030;-83
2021/05/27 09:52:48;;;;;;;9.45;5.32;;;;;;;;;;4979638;28;20029;-82
2021/05/27 09:55:15;;;;;;;7.40;5.40;;;;;;;;;;4960496;28;20404;-83
2021/05/27 09:57:49;;;;;;;7.25;5.15;;;;;;;;;;4980416;28;20114;-82
2021/05/27 10:00:21;;;;;;;8.07;5.50;;;;;;;;;;5007560;28;20404;-82
2021/05/27 10:02:48;;;;;;;6.72;4.90;;;;;;;;;;5024612;28;20358;-83
2021/05/27 10:05:14;;;;;;;9.88;6.10;;;;;;;;;;5024036;28;20038;-83
2021/05/27 10:07:41;;;;;;;8.57;5.68;;;;;;;;;;5007454;28;20069;-83
2021/05/27 10:10:08;;;;;;;7.40;5.65;;;;;;;;;;5003490;28;20500;-83
2021/05/27 10:12:41;;;;;;;16.85;6.50;;;;;;;;;;4987981;28;20081;-83
2021/05/27 10:15:14;;;;;;;11.52;7.18;;;;;;;;;;5007465;28;20038;-81
2021/05/27 10:17:40;;;;;;;12.30;8.98;;;;;;;;;;5006666;28;20026;-82
2021/05/27 10:20:14;;;;;;;14.25;7.90;;;;;;;;;;4990642;28;20092;-80
2021/05/27 10:22:39;;;;;;;9.73;6.43;;;;;;;;;;5006751;28;20038;-80
2021/05/27 10:25:06;;;;;;;14.40;7.32;;;;;;;;;;4994818;28;20530;-80
2021/05/27 10:27:32;;;;;;;10.07;6.35;;;;;;;;;;5010043;28;20034;-80
2021/05/27 10:29:58;;;;;;;10.70;6.20;;;;;;;;;;4993781;28;20391;-81
2021/05/27 10:32:24;;;;;;;11.77;6.32;;;;;;;;;;4986550;28;20465;-82
2021/05/27 10:34:50;;;;;;;8.55;5.13;;;;;;;;;;5004153;28;20117;-81
2021/05/27 10:37:43;;;;;;;9.55;5.10;;;;;;;;;;5003734;28;20038;-82
2021/05/27 10:40:11;;;;;;;9.77;4.20;;;;;;;;;;4976181;28;20044;-82
2021/05/27 10:42:55;;;;;;;11.65;3.90;;;;;;;;;;5007289;28;20034;-82
2021/05/27 10:45:24;;;;;;;9.82;4.30;;;;;;;;;;4989982;28;20093;-81
2021/05/27 10:48:11;;;;;;;6.53;3.97;;;;;;;;;;5007446;28;20049;-80
2021/05/27 10:53:33;;;;;;;7.15;3.65;;;;;;;;;;4976374;28;20190;-80
2021/05/27 10:56:02;;;;;;;8.65;3.10;;;;;;;;;;4974731;28;20116;-81
2021/05/27 10:58:49;;;;;;;7.15;3.25;;;;;;;;;;4974894;28;20042;-87
2021/05/27 11:01:35;;;;;;;14.10;4.53;;;;;;;;;;4991430;28;20035;-83
2021/05/27 11:04:21;;;;;;;7.93;3.22;;;;;;;;;;4986107;28;20074;-83
2021/05/27 11:06:49;;;;;;;6.90;2.95;;;;;;;;;;4980785;28;20081;-82
2021/05/27 11:09:19;;;;;;;5.18;3.10;;;;;;;;;;4978223;28;20062;-83
2021/05/27 11:11:50;;;;;;;6.10;2.65;;;;;;;;;;4994546;28;20065;-83
2021/05/27 11:14:35;;;;;;;6.10;2.85;;;;;;;;;;5010360;28;20129;-83
2021/05/27 11:17:05;;;;;;;5.35;3.00;;;;;;;;;;5009749;28;20038;-83
2021/05/27 11:19:57;;;;;;;8.05;3.28;;;;;;;;;;5010250;28;20503;-82
2021/05/27 11:27:39;;;;;;;6.60;2.72;;;;;;;;;;5010550;28;20049;-84
2021/05/27 11:30:17;;;;;;;7.15;3.22;;;;;;;;;;4994024;28;20031;-83
2021/05/27 11:32:46;;;;;;;5.95;2.53;;;;;;;;;;4985368;28;20030;-83
2021/05/27 11:35:12;;;;;;;4.40;2.50;;;;;;;;;;4982767;28;20551;-83
2021/05/27 11:37:39;;;;;;;3.55;2.50;;;;;;;;;;4961674;28;20034;-84
2021/05/27 11:40:06;;;;;;;6.40;3.20;;;;;;;;;;4994281;28;20034;-84
2021/05/27 11:42:32;;;;;;;7.35;3.08;;;;;;;;;;4977543;28;20113;-83
2021/05/27 11:45:02;;;;;;;5.43;2.50;;;;;;;;;;4977858;28;20108;-83
2021/05/27 11:47:27;;;;;;;6.38;3.15;;;;;;;;;;4977164;28;20484;-83
2021/05/27 11:50:22;;;;;;;8.85;5.88;;;;;;;;;;4992283;28;20030;-83
2021/05/27 11:52:48;;;;;;;9.07;5.97;;;;;;;;;;4962830;28;20048;-83
2021/05/27 11:55:13;;;;;;;11.45;6.13;;;;;;;;;;4994097;28;20481;-82
2021/05/27 11:57:47;;;;;;;11.48;6.22;;;;;;;;;;4978481;28;20100;-82
2021/05/27 12:00:14;;;;;;;9.38;5.78;;;;;;;;;;4977760;28;20040;-82
2021/05/27 12:02:49;;;;;;;9.95;6.63;;;;;;;;;;5009847;28;20377;-83
2021/05/27 12:05:27;;;;;;;10.02;5.85;;;;;;;;;;5010081;28;20042;-81
2021/05/27 12:08:13;;;;;;;10.00;5.13;;;;;;;;;;5010074;28;20031;-80
2021/05/27 12:10:49;;;;;;;8.50;5.18;;;;;;;;;;4994017;28;20041;-81
2021/05/27 12:13:22;;;;;;;11.27;5.97;;;;;;;;;;4964891;28;20022;-81
2021/05/27 12:15:47;;;;;;;;;;;;;;;;;;5001652;28;20041;-80
2021/05/27 12:18:16;;;;;;;10.05;4.65;;;;;;;;;;4991481;28;19909;-81
2021/05/27 12:20:44;;;;;;;9.38;5.43;;;;;;;;;;5008096;28;20031;-81
2021/05/27 12:23:15;;;;;;;7.55;4.75;;;;;;;;;;4992585;28;20507;-81
2021/05/27 12:25:42;;;;;;;6.75;4.05;;;;;;;;;;5003075;28;20117;-83
2021/05/27 12:28:15;;;;;;;8.02;4.45;;;;;;;;;;4997171;28;20057;-83
2021/05/27 12:30:58;;;;;;;6.80;3.58;;;;;;;;;;5013348;28;20052;-83
2021/05/27 12:33:28;;;;;;;5.63;3.78;;;;;;;;;;4998145;28;20029;-83
2021/05/27 12:35:54;;;;;;;6.95;4.10;;;;;;;;;;4996830;28;20034;-81
2021/05/27 12:38:27;;;;;;;5.13;3.45;;;;;;;;;;4996670;28;20026;-81
2021/05/27 12:41:06;;;;;;;8.05;3.88;;;;;;;;;;4989313;28;20025;-80
2021/05/27 12:43:34;;;;;;;6.82;3.42;;;;;;;;;;4977213;28;20042;-80
2021/05/27 12:46:00;;;;;;;4.53;3.10;;;;;;;;;;4976766;28;20069;-80
2021/05/27 12:48:26;;;;;;;7.65;3.33;;;;;;;;;;4993231;28;20062;-80
2021/05/27 12:51:02;;;;;;;6.40;3.45;;;;;;;;;;4960625;28;20116;-81
2021/05/27 12:53:37;;;;;;;7.75;3.30;;;;;;;;;;4976574;28;20038;-81
2021/05/27 12:56:27;;;;;;;4.28;2.85;;;;;;;;;;4960781;28;20030;-80
2021/05/27 12:59:04;;;;;;;4.70;3.60;;;;;;;;;;4994132;28;20037;-80
2021/05/27 13:01:30;;;;;;;5.60;3.00;;;;;;;;;;4977776;28;20034;-80
2021/05/27 13:03:56;;;;;;;6.90;3.40;;;;;;;;;;4976523;28;20455;-80
2021/05/27 13:06:22;;;;;;;6.55;2.47;;;;;;;;;;4976642;28;20037;-80
2021/05/27 13:08:48;;;;;;;5.07;3.25;;;;;;;;;;4976392;28;20117;-81
2021/05/27 13:11:17;;;;;;;6.03;2.83;;;;;;;;;;4992732;28;20125;-80
2021/05/27 13:13:43;;;;;;;5.35;3.20;;;;;;;;;;4976393;28;20035;-80
2021/05/27 13:16:08;;;;;;;8.07;2.85;;;;;;;;;;4976190;28;20031;-81
2021/05/27 13:18:34;;;;;;;5.28;2.50;;;;;;;;;;4992598;28;20427;-80
2021/05/27 13:21:01;;;;;;;4.88;2.50;;;;;;;;;;4991945;28;20105;-80
2021/05/27 13:23:37;;;;;;;4.68;2.40;;;;;;;;;;4976222;28;20061;-79
2021/05/27 13:26:19;;;;;;;4.20;2.47;;;;;;;;;;4972453;28;20041;-79
2021/05/27 13:28:45;;;;;;;4.03;2.25;;;;;;;;;;4988006;28;20026;-79
2021/05/27 13:31:11;;;;;;;3.95;2.30;;;;;;;;;;4988516;28;20509;-80
2021/05/27 13:33:37;;;;;;;5.90;2.47;;;;;;;;;;4989075;28;20030;-80
2021/05/27 13:36:03;;;;;;;3.30;2.08;;;;;;;;;;4988434;28;20030;-79
2021/05/27 13:38:30;;;;;;;5.07;2.70;;;;;;;;;;4972895;28;20440;-81
2021/05/27 13:41:00;;;;;;;5.63;2.22;;;;;;;;;;4991531;28;20042;-80
2021/05/27 13:43:33;;;;;;;4.13;2.05;;;;;;;;;;4992443;28;20050;-81
2021/05/27 13:46:06;;;;;;;3.22;2.00;;;;;;;;;;4992939;28;20061;-80
2021/05/27 13:48:32;;;;;;;2.65;1.90;;;;;;;;;;4975861;28;20495;-80
2021/05/27 13:50:58;;;;;;;5.05;2.28;;;;;;;;;;4991503;28;20029;-79
2021/05/27 13:53:24;;;;;;;3.42;2.00;;;;;;;;;;4991993;28;20034;-81
2021/05/27 13:58:15;;;;;;;3.33;1.90;;;;;;;;;;5007201;28;20485;-77
2021/05/27 14:00:41;;;;;;;3.45;1.90;;;;;;;;;;4975549;28;20057;-78
2021/05/27 14:03:08;;;;;;;7.25;2.08;;;;;;;;;;4991416;28;20077;-77
2021/05/27 14:05:33;;;;;;;7.50;1.95;;;;;;;;;;5008217;28;20027;-77
2021/05/27 14:07:59;;;;;;;2.97;1.52;;;;;;;;;;4991371;28;20037;-78
2021/05/27 14:10:24;;;;;;;4.78;2.00;;;;;;;;;;4991816;28;20026;-78
2021/05/27 14:12:50;;;;;;;3.22;1.52;;;;;;;;;;4991087;28;20153;-77
2021/05/27 14:15:15;;;;;;;3.10;1.95;;;;;;;;;;5007378;28;20046;-77
2021/05/27 14:17:41;;;;;;;4.07;2.13;;;;;;;;;;5008082;28;20389;-77
2021/05/27 14:20:07;;;;;;;3.67;1.73;;;;;;;;;;4991352;28;20058;-77
2021/05/27 14:22:32;;;;;;;5.65;2.00;;;;;;;;;;5007555;28;20027;-76
2021/05/27 14:24:58;;;;;;;5.47;2.40;;;;;;;;;;5007367;28;20037;-77
2021/05/27 14:27:24;;;;;;;5.38;2.10;;;;;;;;;;4990764;28;20113;-78
2021/05/27 14:29:50;;;;;;;4.72;2.65;;;;;;;;;;4987415;28;20042;-78
2021/05/27 14:32:16;;;;;;;6.57;2.63;;;;;;;;;;5000806;28;20038;-78
2021/05/27 14:34:42;;;;;;;4.40;2.45;;;;;;;;;;4989780;28;20412;-79
2021/05/27 14:37:08;;;;;;;5.13;2.25;;;;;;;;;;5013169;28;20083;-78
2021/05/27 14:39:34;;;;;;;4.78;2.30;;;;;;;;;;4994274;28;20038;-77
2021/05/27 14:41:59;;;;;;;6.07;2.63;;;;;;;;;;4997452;28;20034;-77
2021/05/27 14:44:24;;;;;;;6.18;2.70;;;;;;;;;;5007056;28;20038;-77
2021/05/27 14:46:50;;;;;;;5.05;2.13;;;;;;;;;;4987545;28;20570;-77
2021/05/27 14:49:15;;;;;;;4.88;2.58;;;;;;;;;;4999484;28;20069;-77
2021/05/27 14:51:41;;;;;;;5.07;2.45;;;;;;;;;;4990894;28;20042;-78
2021/05/27 14:54:06;;;;;;;5.70;2.97;;;;;;;;;;4990861;28;20030;-77
2021/05/27 14:56:32;;;;;;;6.03;2.30;;;;;;;;;;4976413;28;20353;-79
2021/05/27 14:58:58;;;;;;;4.68;2.20;;;;;;;;;;5038349;28;20062;-80
2021/05/27 15:01:23;;;;;;;8.18;2.35;;;;;;;;;;5010290;28;20456;-80
2021/05/27 15:03:49;;;;;;;4.85;2.25;;;;;;;;;;4985458;28;20092;-79
2021/05/27 15:06:15;;;;;;;4.57;2.08;;;;;;;;;;5007048;28;20026;-78